Time;durP1;ratioP1;P1;durP2;ratioP2;P2;SDS_P1;SDS_P2;PMS_P1;PMS_P2;Temp;Humidity;BMP_temperature;BMP_pressure;BME280_temperature;BME280_humidity;BME280_pressure;Samples;Min_cycle;Max_cycle;Signal;HPM_P1;HPM_P2
2022/10/12 00:00:57;;;;;;;12.30;2.83;;;10.60;99.90;;;;;;4983929;28;20034;-63
2022/10/12 00:03:23;;;;;;;19.30;2.80;;;11.20;99.90;;;;;;4992172;28;20042;-63
2022/10/12 00:06:09;;;;;;;6.60;2.47;;;11.20;99.90;;;;;;4991496;28;20042;-63
2022/10/12 00:08:36;;;;;;;8.45;3.10;;;10.60;99.90;;;;;;4992435;28;20037;-63
2022/10/12 00:11:03;;;;;;;5.00;2.58;;;11.20;99.90;;;;;;4991827;28;20034;-63
2022/10/12 00:13:29;;;;;;;6.13;2.80;;;11.00;99.90;;;;;;4990575;28;20121;-64
2022/10/12 00:15:54;;;;;;;9.65;3.00;;;10.70;99.90;;;;;;4991958;28;20137;-63
2022/10/12 00:18:20;;;;;;;10.73;2.80;;;10.80;99.90;;;;;;4974140;28;20173;-63
2022/10/12 00:20:46;;;;;;;9.20;2.70;;;10.80;99.90;;;;;;4991473;28;20551;-63
2022/10/12 00:23:11;;;;;;;8.15;2.80;;;10.90;99.90;;;;;;4974659;28;20109;-63
2022/10/12 00:25:39;;;;;;;12.32;3.08;;;10.80;99.90;;;;;;4991903;28;20030;-63
2022/10/12 00:28:06;;;;;;;7.18;3.00;;;11.00;99.90;;;;;;4989904;28;20041;-63
2022/10/12 00:30:33;;;;;;;5.20;2.47;;;11.30;99.90;;;;;;4991634;28;20049;-63
2022/10/12 00:32:58;;;;;;;5.85;2.55;;;11.20;99.90;;;;;;4991780;28;20103;-63
2022/10/12 00:35:24;;;;;;;11.52;2.85;;;10.80;99.90;;;;;;4991488;28;20046;-63
2022/10/12 00:37:53;;;;;;;9.35;2.90;;;10.80;99.90;;;;;;4970741;28;20047;-63
2022/10/12 00:40:19;;;;;;;15.15;2.92;;;10.80;99.90;;;;;;4972321;28;20050;-63
2022/10/12 00:42:47;;;;;;;7.25;2.80;;;11.00;99.90;;;;;;4954990;28;20455;-63
2022/10/12 00:45:14;;;;;;;10.90;2.75;;;11.20;99.90;;;;;;4972147;28;20408;-64
2022/10/12 00:47:47;;;;;;;13.10;2.80;;;11.10;99.90;;;;;;4972089;28;20051;-63
2022/10/12 00:50:28;;;;;;;9.38;2.67;;;11.30;99.90;;;;;;4972039;28;20042;-63
2022/10/12 00:53:04;;;;;;;9.82;2.83;;;11.20;99.90;;;;;;4972586;28;20432;-63
2022/10/12 00:55:37;;;;;;;9.90;2.78;;;11.60;99.90;;;;;;4972147;28;20039;-63
2022/10/12 00:58:05;;;;;;;9.57;2.92;;;11.00;99.90;;;;;;4972142;28;20038;-63
2022/10/12 01:00:31;;;;;;;6.65;2.47;;;11.00;99.90;;;;;;4971791;28;20053;-63
2022/10/12 01:02:57;;;;;;;9.55;2.70;;;12.30;99.90;;;;;;4972213;28;20167;-63
2022/10/12 01:05:23;;;;;;;9.40;2.47;;;11.40;99.90;;;;;;4972000;28;20043;-63
2022/10/12 01:07:48;;;;;;;4.75;2.50;;;11.40;99.90;;;;;;4954855;28;20165;-63
2022/10/12 01:10:15;;;;;;;7.28;2.17;;;10.80;99.90;;;;;;4971970;28;20038;-63
2022/10/12 01:12:43;;;;;;;10.00;2.47;;;11.20;99.90;;;;;;4971893;28;20047;-63
2022/10/12 01:15:10;;;;;;;9.55;3.47;;;11.20;99.90;;;;;;4986609;28;20046;-63
2022/10/12 01:18:01;;;;;;;9.65;2.88;;;10.70;99.90;;;;;;4991492;28;20396;-63
2022/10/12 01:21:08;;;;;;;10.32;2.60;;;10.90;99.90;;;;;;4983148;28;20058;-63
2022/10/12 01:24:13;;;;;;;6.68;2.60;;;11.20;99.90;;;;;;4991116;28;20050;-63
2022/10/12 01:26:47;;;;;;;6.95;2.70;;;11.10;99.90;;;;;;4993723;28;20101;-63
2022/10/12 01:29:30;;;;;;;12.10;2.60;;;11.60;99.90;;;;;;4995106;28;20555;-64
2022/10/12 01:32:23;;;;;;;6.20;2.38;;;11.40;99.90;;;;;;4994915;28;20108;-64
2022/10/12 01:35:20;;;;;;;5.88;2.50;;;11.40;99.90;;;;;;4977504;28;20069;-63
2022/10/12 01:38:15;;;;;;;7.82;2.70;;;11.00;99.90;;;;;;4994771;28;20434;-63
2022/10/12 01:40:47;;;;;;;8.13;2.80;;;11.10;99.90;;;;;;4994958;28;20500;-63
2022/10/12 01:43:16;;;;;;;6.90;2.80;;;11.50;99.90;;;;;;4976997;28;20495;-63
2022/10/12 01:45:42;;;;;;;6.50;2.97;;;11.70;99.90;;;;;;4994785;28;20049;-64
2022/10/12 01:48:08;;;;;;;6.57;2.63;;;11.50;99.90;;;;;;4977250;28;20034;-63
2022/10/12 01:50:53;;;;;;;7.80;2.40;;;11.50;99.90;;;;;;4977048;28;20042;-63
2022/10/12 01:53:59;;;;;;;9.18;2.92;;;11.40;99.90;;;;;;4979420;28;20406;-64
2022/10/12 01:56:33;;;;;;;7.57;2.90;;;11.70;99.90;;;;;;4975172;28;20583;-63
2022/10/12 01:59:25;;;;;;;5.97;2.90;;;11.50;99.90;;;;;;4957657;28;20425;-64
2022/10/12 02:02:16;;;;;;;7.90;3.22;;;11.50;99.90;;;;;;4975862;28;20081;-63
2022/10/12 02:05:14;;;;;;;9.40;3.20;;;11.80;99.90;;;;;;4976816;28;20046;-64
2022/10/12 02:07:47;;;;;;;5.43;3.15;;;11.30;99.90;;;;;;4976876;28;20038;-64
2022/10/12 02:10:19;;;;;;;11.50;3.50;;;11.60;99.90;;;;;;4994320;28;20046;-64
2022/10/12 02:12:46;;;;;;;12.15;3.55;;;11.40;99.90;;;;;;4994360;28;20121;-63
2022/10/12 02:15:13;;;;;;;13.52;3.83;;;11.40;99.90;;;;;;4994281;28;20519;-64
2022/10/12 02:17:42;;;;;;;20.52;5.00;;;11.40;99.90;;;;;;4994141;28;20065;-63
2022/10/12 02:20:11;;;;;;;17.58;4.03;;;11.20;99.90;;;;;;4994193;28;20054;-64
2022/10/12 02:22:40;;;;;;;13.70;3.40;;;11.80;99.90;;;;;;4949512;28;20043;-64
2022/10/12 02:25:10;;;;;;;12.57;4.00;;;11.20;99.90;;;;;;4991225;28;20624;-64
2022/10/12 02:27:40;;;;;;;19.52;4.28;;;11.20;99.90;;;;;;4994145;28;20030;-64
2022/10/12 02:30:07;;;;;;;13.95;3.90;;;11.70;99.90;;;;;;4993801;28;20407;-63
2022/10/12 02:32:45;;;;;;;11.98;4.20;;;11.20;99.90;;;;;;4976604;28;20557;-63
2022/10/12 02:35:19;;;;;;;13.75;4.38;;;11.90;99.90;;;;;;4993587;28;20105;-63
2022/10/12 02:37:51;;;;;;;12.68;4.10;;;11.20;99.90;;;;;;4992422;28;20412;-64
2022/10/12 02:40:43;;;;;;;14.07;4.15;;;11.90;99.90;;;;;;4993597;28;20137;-63
2022/10/12 02:43:18;;;;;;;13.63;4.57;;;12.00;99.90;;;;;;4993993;28;20046;-64
2022/10/12 02:45:46;;;;;;;9.90;4.28;;;11.30;99.90;;;;;;4993779;28;20525;-64
2022/10/12 02:48:20;;;;;;;13.15;4.65;;;11.60;99.90;;;;;;4993814;28;20039;-64
2022/10/12 02:50:48;;;;;;;13.15;4.30;;;11.40;99.90;;;;;;4993501;28;20042;-63
2022/10/12 02:53:14;;;;;;;16.40;4.50;;;11.30;99.90;;;;;;4992686;28;20069;-63
2022/10/12 02:55:51;;;;;;;8.85;4.18;;;11.20;99.90;;;;;;4993636;28;20046;-64
2022/10/12 02:58:17;;;;;;;19.85;4.63;;;11.80;99.90;;;;;;4993695;28;20085;-63
2022/10/12 03:00:43;;;;;;;8.38;4.40;;;11.70;99.90;;;;;;4993299;28;20046;-63
2022/10/12 03:03:09;;;;;;;12.80;4.53;;;11.30;99.90;;;;;;4975582;28;20070;-63
2022/10/12 03:05:35;;;;;;;10.50;4.00;;;11.40;99.90;;;;;;4993155;28;20081;-64
2022/10/12 03:08:00;;;;;;;10.25;3.53;;;11.50;99.90;;;;;;4959930;28;20038;-64
2022/10/12 03:10:26;;;;;;;10.15;3.70;;;11.60;99.90;;;;;;4993454;28;20034;-64
2022/10/12 03:12:53;;;;;;;10.88;3.80;;;11.20;99.90;;;;;;4993284;28;20038;-63
2022/10/12 03:15:19;;;;;;;11.02;3.60;;;11.20;99.90;;;;;;4975103;28;20042;-63
2022/10/12 03:17:44;;;;;;;11.75;3.88;;;11.80;99.90;;;;;;4993058;28;20583;-64
2022/10/12 03:20:10;;;;;;;10.70;4.25;;;11.10;99.90;;;;;;4993180;28;20046;-64
2022/10/12 03:22:36;;;;;;;12.38;4.13;;;11.50;99.90;;;;;;4981002;28;20035;-64
2022/10/12 03:25:02;;;;;;;14.35;4.28;;;11.40;99.90;;;;;;4956292;28;20050;-63
2022/10/12 03:27:27;;;;;;;9.88;4.10;;;11.20;99.90;;;;;;4955982;28;20035;-64
2022/10/12 03:29:53;;;;;;;9.98;3.53;;;11.40;99.90;;;;;;4973486;28;20069;-63
2022/10/12 03:32:18;;;;;;;8.20;3.97;;;11.50;99.90;;;;;;4955984;28;20039;-64
2022/10/12 03:34:44;;;;;;;8.88;3.90;;;11.80;99.90;;;;;;4955837;28;20504;-64
2022/10/12 03:37:09;;;;;;;10.68;4.03;;;11.70;99.90;;;;;;4984843;28;20605;-64
2022/10/12 03:39:35;;;;;;;13.27;4.15;;;11.70;99.90;;;;;;4992861;28;20190;-64
2022/10/12 03:42:01;;;;;;;13.75;4.03;;;11.10;99.90;;;;;;4992579;28;20034;-64
2022/10/12 03:44:26;;;;;;;12.18;4.18;;;11.70;99.90;;;;;;4992581;28;20038;-64
2022/10/12 03:46:52;;;;;;;8.05;4.70;;;11.40;99.90;;;;;;4974960;28;20044;-63
2022/10/12 03:49:17;;;;;;;11.77;4.53;;;11.20;99.90;;;;;;4992108;28;20038;-64
2022/10/12 03:51:43;;;;;;;13.18;4.50;;;11.60;99.90;;;;;;4973897;28;20057;-64
2022/10/12 03:54:09;;;;;;;15.77;4.47;;;11.10;99.90;;;;;;4984647;28;20058;-64
2022/10/12 03:56:34;;;;;;;12.20;4.50;;;11.20;99.90;;;;;;4973078;28;20096;-64
2022/10/12 03:59:00;;;;;;;10.88;5.00;;;10.80;99.90;;;;;;4955578;28;20053;-63
2022/10/12 04:01:26;;;;;;;10.77;4.70;;;11.60;99.90;;;;;;4987699;28;20049;-64
2022/10/12 04:03:51;;;;;;;10.40;4.57;;;10.90;99.90;;;;;;4991976;28;20049;-64
2022/10/12 04:06:17;;;;;;;11.05;4.75;;;10.80;99.90;;;;;;4974670;28;20148;-64
2022/10/12 04:08:43;;;;;;;12.13;5.18;;;11.30;99.90;;;;;;4974664;28;20046;-64
2022/10/12 04:11:08;;;;;;;13.02;4.85;;;11.50;99.90;;;;;;4992231;28;20030;-64
2022/10/12 04:13:34;;;;;;;19.25;5.38;;;11.40;99.90;;;;;;4992047;28;20416;-64
2022/10/12 04:16:05;;;;;;;14.23;4.97;;;11.50;99.90;;;;;;4992090;28;20027;-64
2022/10/12 04:18:30;;;;;;;11.68;4.90;;;10.60;99.90;;;;;;4992054;28;20042;-64
2022/10/12 04:20:56;;;;;;;9.88;5.30;;;11.10;99.90;;;;;;4991863;28;20121;-64
2022/10/12 04:23:22;;;;;;;16.90;5.30;;;11.20;99.90;;;;;;4957098;28;20038;-64
2022/10/12 04:25:47;;;;;;;12.70;5.15;;;11.40;99.90;;;;;;4972618;28;20043;-64
2022/10/12 04:28:13;;;;;;;14.98;5.60;;;11.00;99.90;;;;;;4955010;28;20046;-64
2022/10/12 04:30:38;;;;;;;14.25;5.18;;;11.00;99.90;;;;;;4972172;28;20129;-63
2022/10/12 04:33:04;;;;;;;16.83;5.97;;;11.30;99.90;;;;;;4972401;28;20126;-64
2022/10/12 04:35:30;;;;;;;13.63;5.22;;;11.40;99.90;;;;;;4977996;28;20522;-63
2022/10/12 04:37:56;;;;;;;14.15;5.15;;;11.40;99.90;;;;;;4991398;28;20038;-64
2022/10/12 04:40:22;;;;;;;12.02;4.93;;;11.20;99.90;;;;;;4991715;28;20410;-63
2022/10/12 04:42:47;;;;;;;14.48;4.95;;;10.80;99.90;;;;;;4991980;28;20118;-64
2022/10/12 04:45:13;;;;;;;12.98;5.10;;;11.20;99.90;;;;;;4991496;28;20104;-64
2022/10/12 04:47:38;;;;;;;16.63;4.93;;;11.20;99.90;;;;;;4991729;28;20038;-64
2022/10/12 04:50:05;;;;;;;13.90;5.43;;;10.50;99.90;;;;;;4991516;28;20049;-64
2022/10/12 04:52:30;;;;;;;19.20;5.30;;;11.20;99.90;;;;;;4983407;28;20066;-63
2022/10/12 04:54:57;;;;;;;14.63;4.97;;;11.10;99.90;;;;;;4954832;28;20035;-63
2022/10/12 04:57:22;;;;;;;12.15;5.20;;;10.50;99.90;;;;;;4972193;28;20034;-64
2022/10/12 04:59:48;;;;;;;13.98;5.43;;;11.20;99.90;;;;;;4972099;28;20050;-63
2022/10/12 05:02:13;;;;;;;10.98;5.18;;;13.30;99.90;;;;;;4975698;28;20045;-64
2022/10/12 05:04:39;;;;;;;13.80;5.60;;;10.60;99.90;;;;;;4975944;28;20117;-64
2022/10/12 05:07:04;;;;;;;12.90;5.20;;;10.80;99.90;;;;;;4977067;28;20030;-63
2022/10/12 05:09:30;;;;;;;16.45;5.22;;;10.50;99.90;;;;;;4976205;28;20043;-63
2022/10/12 05:11:56;;;;;;;19.38;5.50;;;10.60;99.90;;;;;;4958926;28;20559;-63
2022/10/12 05:14:21;;;;;;;20.02;6.22;;;10.80;99.90;;;;;;4984459;28;20065;-63
2022/10/12 05:16:47;;;;;;;15.55;6.15;;;10.40;99.90;;;;;;4995513;28;20038;-63
2022/10/12 05:19:12;;;;;;;13.93;6.32;;;11.10;99.90;;;;;;4995230;28;20081;-63
2022/10/12 05:21:39;;;;;;;14.30;6.50;;;11.10;99.90;;;;;;4995143;28;20183;-64
2022/10/12 05:24:05;;;;;;;24.10;6.47;;;10.90;99.90;;;;;;4959121;28;20105;-63
2022/10/12 05:26:31;;;;;;;18.27;6.60;;;11.10;99.90;;;;;;4975823;28;20039;-63
2022/10/12 05:28:57;;;;;;;21.13;6.50;;;11.90;99.90;;;;;;4975566;28;20108;-63
2022/10/12 05:31:22;;;;;;;17.77;6.30;;;10.40;99.90;;;;;;4975646;28;20031;-64
2022/10/12 05:33:48;;;;;;;16.05;6.03;;;10.30;99.90;;;;;;4975796;28;20045;-63
2022/10/12 05:36:14;;;;;;;16.48;5.97;;;10.80;99.90;;;;;;4979737;28;20043;-63
2022/10/12 05:38:39;;;;;;;11.57;5.60;;;11.00;99.90;;;;;;4995129;28;20042;-64
2022/10/12 05:41:05;;;;;;;15.73;5.65;;;10.60;99.90;;;;;;4995033;28;20042;-63
2022/10/12 05:43:31;;;;;;;21.40;6.18;;;11.00;99.90;;;;;;4994345;28;20042;-64
2022/10/12 05:45:57;;;;;;;15.77;5.28;;;10.30;99.90;;;;;;4994785;28;20042;-64
2022/10/12 05:48:22;;;;;;;19.83;5.35;;;10.50;99.90;;;;;;4994714;28;20034;-63
2022/10/12 05:50:51;;;;;;;15.20;5.50;;;10.90;99.90;;;;;;4994451;28;20053;-64
2022/10/12 05:53:17;;;;;;;11.48;5.40;;;10.50;99.90;;;;;;4994200;28;20057;-63
2022/10/12 05:56:00;;;;;;;17.05;5.93;;;11.20;99.90;;;;;;4994763;28;20038;-64
2022/10/12 05:58:27;;;;;;;11.27;5.22;;;10.70;99.90;;;;;;4994675;28;20512;-63
2022/10/12 06:00:54;;;;;;;10.40;4.80;;;10.10;99.90;;;;;;4994254;28;20441;-64
2022/10/12 06:03:20;;;;;;;12.18;5.10;;;9.90;99.90;;;;;;4973143;28;20042;-64
2022/10/12 06:05:46;;;;;;;10.77;4.43;;;10.60;99.90;;;;;;4981474;28;20061;-63
2022/10/12 06:08:13;;;;;;;14.07;5.07;;;10.70;99.90;;;;;;4975023;28;20393;-63
2022/10/12 06:10:45;;;;;;;14.77;5.53;;;10.00;99.90;;;;;;4974901;28;20042;-64
2022/10/12 06:13:11;;;;;;;16.88;6.32;;;10.80;99.90;;;;;;4974589;28;20038;-63
2022/10/12 06:15:36;;;;;;;15.52;6.28;;;10.20;99.90;;;;;;4974732;28;20034;-63
2022/10/12 06:18:02;;;;;;;18.05;7.60;;;10.10;99.90;;;;;;4974447;28;20145;-63
2022/10/12 06:20:27;;;;;;;19.55;7.78;;;10.70;99.90;;;;;;4974667;28;20584;-63
2022/10/12 06:22:53;;;;;;;16.50;7.00;;;10.30;99.90;;;;;;4970898;28;20053;-63
2022/10/12 06:25:18;;;;;;;17.15;6.57;;;10.40;99.90;;;;;;4993793;28;20040;-62
2022/10/12 06:27:44;;;;;;;14.48;6.90;;;10.10;99.90;;;;;;4994093;28;20034;-64
2022/10/12 06:30:11;;;;;;;17.83;6.88;;;10.20;99.90;;;;;;4993922;28;20518;-64
2022/10/12 06:32:37;;;;;;;15.98;6.65;;;10.80;99.90;;;;;;4978998;28;20074;-64
2022/10/12 06:35:02;;;;;;;19.85;7.57;;;10.20;99.90;;;;;;4976416;28;20129;-64
2022/10/12 06:37:28;;;;;;;15.20;6.57;;;10.80;99.90;;;;;;4976522;28;20472;-64
2022/10/12 06:39:54;;;;;;;22.05;7.18;;;10.50;99.90;;;;;;4993870;28;20137;-64
2022/10/12 06:42:20;;;;;;;22.30;7.07;;;10.80;99.90;;;;;;4993582;28;20113;-64
2022/10/12 06:44:46;;;;;;;12.35;6.55;;;11.10;99.90;;;;;;4980556;28;20043;-64
2022/10/12 06:47:11;;;;;;;16.00;6.88;;;11.20;99.90;;;;;;4974216;28;20031;-64
2022/10/12 06:49:37;;;;;;;15.02;6.43;;;11.90;99.90;;;;;;4974172;28;20078;-64
2022/10/12 06:52:03;;;;;;;14.85;7.40;;;11.00;99.90;;;;;;4975777;28;20508;-64
2022/10/12 06:54:28;;;;;;;15.75;7.05;;;11.10;99.90;;;;;;4974017;28;20057;-64
2022/10/12 06:56:54;;;;;;;13.70;7.70;;;11.50;99.90;;;;;;4974139;28;20082;-64
2022/10/12 06:59:21;;;;;;;17.15;7.50;;;10.90;99.90;;;;;;4973962;28;20125;-64
2022/10/12 07:01:48;;;;;;;14.65;7.25;;;11.20;99.90;;;;;;4973919;28;20043;-64
2022/10/12 07:04:14;;;;;;;18.50;7.28;;;11.30;99.90;;;;;;4973903;28;20412;-64
2022/10/12 07:06:40;;;;;;;19.80;8.13;;;11.40;99.90;;;;;;4974225;28;20070;-64
2022/10/12 07:09:06;;;;;;;19.45;8.07;;;12.10;99.90;;;;;;4974165;28;20476;-64
2022/10/12 07:11:32;;;;;;;19.15;7.90;;;11.70;99.90;;;;;;4973797;28;20042;-64
2022/10/12 07:13:57;;;;;;;16.10;7.43;;;11.90;99.90;;;;;;4979024;28;20126;-64
2022/10/12 07:16:23;;;;;;;24.25;8.05;;;12.00;99.90;;;;;;4992682;28;20070;-64
2022/10/12 07:18:49;;;;;;;18.95;7.38;;;11.60;99.90;;;;;;4973499;28;20043;-64
2022/10/12 07:21:15;;;;;;;18.90;7.88;;;11.90;99.90;;;;;;4973876;28;20497;-65
2022/10/12 07:23:40;;;;;;;20.70;7.38;;;12.10;99.90;;;;;;4977670;28;20034;-64
2022/10/12 07:26:07;;;;;;;22.40;7.88;;;12.50;99.90;;;;;;4992957;28;20125;-64
2022/10/12 07:28:34;;;;;;;23.95;8.48;;;12.40;99.90;;;;;;4992994;28;20113;-64
2022/10/12 07:31:05;;;;;;;16.88;8.25;;;12.50;99.90;;;;;;4975634;28;20061;-64
2022/10/12 07:33:35;;;;;;;15.38;7.10;;;11.90;99.90;;;;;;4992522;28;20038;-64
2022/10/12 07:36:01;;;;;;;24.45;7.80;;;12.30;99.90;;;;;;4975100;28;20404;-64
2022/10/12 07:38:28;;;;;;;19.35;7.55;;;12.20;99.90;;;;;;4992949;28;20041;-64
2022/10/12 07:40:53;;;;;;;20.42;7.85;;;11.80;99.90;;;;;;4974964;28;20050;-64
2022/10/12 07:43:19;;;;;;;17.65;7.50;;;12.60;99.90;;;;;;4976944;28;20035;-64
2022/10/12 07:45:44;;;;;;;16.83;7.50;;;12.90;99.90;;;;;;4955842;28;20042;-64
2022/10/12 07:48:10;;;;;;;17.60;7.50;;;12.50;99.90;;;;;;4973111;28;20138;-64
2022/10/12 07:50:36;;;;;;;14.23;6.68;;;12.30;99.90;;;;;;4978158;28;20050;-64
2022/10/12 07:53:02;;;;;;;18.08;7.93;;;13.10;99.90;;;;;;4974948;28;20129;-64
2022/10/12 07:55:30;;;;;;;21.80;7.50;;;12.90;99.90;;;;;;4968201;28;20125;-64
2022/10/12 07:57:57;;;;;;;21.92;7.70;;;13.50;99.90;;;;;;4982928;28;20026;-65
2022/10/12 08:00:23;;;;;;;13.70;6.10;;;13.60;99.90;;;;;;4992114;28;20041;-64
2022/10/12 08:02:48;;;;;;;16.00;6.85;;;13.10;99.90;;;;;;4991354;28;20444;-64
2022/10/12 08:05:14;;;;;;;20.00;6.65;;;13.30;99.90;;;;;;4991189;28;20077;-64
2022/10/12 08:07:39;;;;;;;18.58;7.22;;;13.90;99.90;;;;;;4992462;28;20049;-64
2022/10/12 08:10:05;;;;;;;17.73;7.30;;;14.20;99.90;;;;;;4992332;28;20446;-64
2022/10/12 08:12:31;;;;;;;18.73;6.80;;;14.20;99.90;;;;;;4992169;28;20053;-65
2022/10/12 08:14:56;;;;;;;17.83;6.20;;;14.90;99.90;;;;;;4992236;28;20042;-64
2022/10/12 08:17:23;;;;;;;21.30;6.72;;;15.10;99.90;;;;;;4991952;28;20049;-65
2022/10/12 08:19:48;;;;;;;15.75;5.88;;;15.10;99.90;;;;;;4984595;28;20062;-65
2022/10/12 08:22:14;;;;;;;16.33;6.53;;;15.30;99.90;;;;;;4979641;28;20046;-65
2022/10/12 08:24:40;;;;;;;15.68;5.95;;;15.50;99.90;;;;;;4985087;28;20415;-64
2022/10/12 08:27:05;;;;;;;16.33;6.13;;;15.50;99.90;;;;;;4973805;28;20049;-65
2022/10/12 08:29:31;;;;;;;20.10;6.00;;;15.60;99.90;;;;;;4991605;28;20049;-65
2022/10/12 08:31:56;;;;;;;27.77;6.30;;;16.00;99.90;;;;;;4991045;28;20380;-65
2022/10/12 08:34:23;;;;;;;20.92;5.45;;;16.30;99.90;;;;;;4966932;28;20043;-65
2022/10/12 08:36:50;;;;;;;14.82;5.43;;;16.60;99.90;;;;;;4986986;28;20594;-65
2022/10/12 08:39:16;;;;;;;18.98;5.28;;;17.20;99.90;;;;;;4991932;28;20377;-65
2022/10/12 08:41:46;;;;;;;12.07;4.90;;;17.10;99.90;;;;;;4991150;28;20041;-65
2022/10/12 08:44:29;;;;;;;11.40;4.35;;;17.60;99.90;;;;;;4987625;28;20125;-65
2022/10/12 08:46:59;;;;;;;20.30;5.22;;;17.50;99.90;;;;;;4973804;28;20137;-65
2022/10/12 08:49:27;;;;;;;12.30;4.15;;;17.60;99.90;;;;;;4991353;28;20093;-65
2022/10/12 08:51:56;;;;;;;14.95;4.82;;;17.70;99.90;;;;;;4972844;28;20125;-65
2022/10/12 08:54:25;;;;;;;13.88;4.35;;;17.70;99.90;;;;;;4991551;28;20055;-65
2022/10/12 08:56:54;;;;;;;12.05;3.60;;;17.80;99.90;;;;;;4991468;28;20105;-65
2022/10/12 08:59:20;;;;;;;12.25;4.25;;;17.80;99.90;;;;;;4973950;28;20104;-65
2022/10/12 09:02:04;;;;;;;10.13;4.43;;;17.90;99.90;;;;;;4974229;28;20061;-65
2022/10/12 09:04:39;;;;;;;14.85;4.00;;;17.80;99.90;;;;;;4991772;28;20511;-65
2022/10/12 09:07:21;;;;;;;9.90;3.90;;;17.80;99.90;;;;;;4991447;28;20094;-65
2022/10/12 09:10:25;;;;;;;14.55;3.60;;;17.80;99.90;;;;;;4974332;28;20062;-65
2022/10/12 09:12:59;;;;;;;15.70;4.72;;;17.80;99.90;;;;;;4974067;28;20412;-65
2022/10/12 09:15:32;;;;;;;15.35;4.47;;;17.80;99.90;;;;;;4988771;28;20043;-65
2022/10/12 09:18:00;;;;;;;11.90;4.00;;;17.80;99.90;;;;;;4972079;28;20050;-65
2022/10/12 09:20:27;;;;;;;12.30;3.55;;;18.00;99.90;;;;;;4971843;28;20043;-65
2022/10/12 09:22:59;;;;;;;14.48;4.13;;;17.90;99.90;;;;;;4972371;28;20038;-65
2022/10/12 09:25:27;;;;;;;15.38;4.00;;;18.00;99.90;;;;;;4971958;28;20034;-65
2022/10/12 09:27:56;;;;;;;12.25;3.80;;;18.00;99.90;;;;;;4979172;28;20476;-65
2022/10/12 09:30:21;;;;;;;12.18;3.53;;;18.10;99.90;;;;;;4991359;28;20042;-64
2022/10/12 09:32:47;;;;;;;15.20;4.22;;;18.10;99.90;;;;;;4991321;28;20132;-65
2022/10/12 09:35:13;;;;;;;14.73;4.45;;;18.10;99.90;;;;;;4991546;28;20088;-65
2022/10/12 09:37:39;;;;;;;19.05;4.28;;;18.30;99.90;;;;;;4991023;28;20046;-65
2022/10/12 09:40:06;;;;;;;13.30;4.00;;;18.30;99.90;;;;;;4970463;28;20039;-65
2022/10/12 09:42:34;;;;;;;15.13;3.85;;;18.40;99.90;;;;;;4971968;28;20469;-64
2022/10/12 09:45:20;;;;;;;12.65;3.55;;;18.30;99.90;;;;;;4971882;28;20501;-65
2022/10/12 09:48:12;;;;;;;14.63;4.67;;;18.30;99.90;;;;;;4960935;28;20034;-64
2022/10/12 09:50:54;;;;;;;9.00;3.45;;;18.40;99.90;;;;;;4994330;28;20404;-65
2022/10/12 09:53:42;;;;;;;18.85;4.45;;;18.50;99.90;;;;;;4977343;28;20043;-65
2022/10/12 09:56:21;;;;;;;15.75;3.95;;;18.40;99.90;;;;;;4995037;28;20518;-65
2022/10/12 09:58:53;;;;;;;20.95;4.55;;;18.80;99.90;;;;;;4994455;28;20038;-65
2022/10/12 10:01:24;;;;;;;17.83;3.33;;;18.60;99.90;;;;;;4994733;28;20411;-65
2022/10/12 10:04:07;;;;;;;16.73;3.45;;;18.70;99.90;;;;;;4993838;28;20125;-65
2022/10/12 10:06:35;;;;;;;13.05;3.72;;;18.70;99.90;;;;;;4977522;28;20096;-65
2022/10/12 10:09:01;;;;;;;14.27;3.75;;;18.50;99.90;;;;;;4994691;28;20491;-64
2022/10/12 10:11:31;;;;;;;14.15;2.85;;;18.70;99.90;;;;;;4977078;28;20038;-65
2022/10/12 10:13:59;;;;;;;16.42;2.63;;;18.80;99.90;;;;;;4994551;28;20031;-65
2022/10/12 10:16:26;;;;;;;10.35;2.80;;;19.10;99.90;;;;;;4982034;28;20470;-65
2022/10/12 10:18:52;;;;;;;15.88;2.75;;;18.80;99.90;;;;;;4975104;28;20401;-65
2022/10/12 10:21:32;;;;;;;15.80;3.47;;;18.80;99.90;;;;;;4975208;28;20043;-64
2022/10/12 10:24:02;;;;;;;14.23;3.47;;;18.80;99.90;;;;;;4977617;28;20077;-65
2022/10/12 10:26:48;;;;;;;13.68;2.75;;;18.70;99.90;;;;;;4976811;28;20370;-65
2022/10/12 10:29:25;;;;;;;14.82;2.80;;;18.80;99.90;;;;;;4976886;28;20520;-65
2022/10/12 10:32:10;;;;;;;13.05;2.83;;;18.90;99.90;;;;;;4994495;28;20049;-65
2022/10/12 10:35:10;;;;;;;17.88;3.35;;;18.80;99.90;;;;;;4994002;28;20132;-65
2022/10/12 10:37:55;;;;;;;11.52;2.42;;;19.00;99.90;;;;;;4994003;28;20084;-64
2022/10/12 10:40:40;;;;;;;15.20;2.70;;;18.90;99.90;;;;;;4994074;28;20471;-65
2022/10/12 10:43:30;;;;;;;14.60;3.53;;;18.90;99.90;;;;;;4994108;28;20118;-65
2022/10/12 10:46:21;;;;;;;20.75;2.75;;;18.90;99.90;;;;;;4993906;28;20096;-65
2022/10/12 10:49:00;;;;;;;13.35;2.92;;;19.00;99.90;;;;;;4991888;28;20074;-65
2022/10/12 10:51:51;;;;;;;16.45;3.20;;;19.10;99.90;;;;;;4975481;28;20459;-64
2022/10/12 10:54:26;;;;;;;12.55;3.10;;;19.10;99.90;;;;;;4982857;28;20065;-64
2022/10/12 10:57:04;;;;;;;14.85;3.80;;;18.90;99.90;;;;;;4973956;28;20055;-65
2022/10/12 10:59:52;;;;;;;19.05;2.95;;;19.00;99.90;;;;;;4978765;28;20519;-64
2022/10/12 11:02:29;;;;;;;12.73;2.60;;;19.00;99.90;;;;;;4993680;28;20050;-64
2022/10/12 11:05:14;;;;;;;11.45;2.95;;;19.40;99.90;;;;;;4976289;28;20069;-64
2022/10/12 11:07:51;;;;;;;8.57;2.47;;;19.00;99.90;;;;;;4993809;28;20388;-63
2022/10/12 11:10:26;;;;;;;15.02;2.97;;;18.80;2.20;;;;;;4993496;28;20494;-64
2022/10/12 11:13:09;;;;;;;15.63;3.03;;;18.70;1.00;;;;;;4993314;28;20034;-64
2022/10/12 11:15:44;;;;;;;13.63;2.90;;;18.60;1.00;;;;;;4960008;28;20123;-63
2022/10/12 11:18:14;;;;;;;17.98;3.17;;;18.80;1.00;;;;;;4973974;28;20046;-64
2022/10/12 11:20:55;;;;;;;14.23;2.72;;;18.80;1.00;;;;;;4973901;28;20458;-63
2022/10/12 11:23:36;;;;;;;22.67;3.78;;;18.80;99.90;;;;;;4973709;28;20038;-63
2022/10/12 11:26:17;;;;;;;17.15;2.92;;;18.90;99.90;;;;;;4973938;28;20043;-63
2022/10/12 11:28:44;;;;;;;8.20;2.00;;;18.80;99.90;;;;;;4973877;28;20063;-64
2022/10/12 11:31:23;;;;;;;12.48;2.53;;;18.70;1.00;;;;;;4973605;28;20102;-63
2022/10/12 11:33:50;;;;;;;13.73;2.78;;;18.60;1.00;;;;;;4955840;28;20061;-64
2022/10/12 11:36:20;;;;;;;11.80;2.92;;;18.60;1.00;;;;;;4978882;28;20480;-63
2022/10/12 11:38:51;;;;;;;14.20;2.60;;;18.70;1.00;;;;;;4993077;28;20049;-64
2022/10/12 11:41:44;;;;;;;15.15;2.90;;;18.80;1.00;;;;;;4993060;28;20038;-63
2022/10/12 11:44:22;;;;;;;14.43;2.47;;;18.60;99.90;;;;;;4974887;28;20054;-63
2022/10/12 11:47:01;;;;;;;12.75;2.75;;;18.50;1.00;;;;;;4992615;28;20046;-63
2022/10/12 11:49:31;;;;;;;16.95;2.75;;;18.50;1.00;;;;;;4992839;28;20066;-63
2022/10/12 11:52:01;;;;;;;19.42;3.08;;;18.50;1.00;;;;;;4992558;28;20439;-63
2022/10/12 11:54:36;;;;;;;9.43;2.53;;;18.50;1.00;;;;;;4992526;28;20139;-63
2022/10/12 11:57:12;;;;;;;11.57;2.90;;;18.50;99.90;;;;;;4992612;28;20046;-63
2022/10/12 11:59:40;;;;;;;;;;;18.40;1.00;;;;;;4992985;28;20417;-63
2022/10/12 12:02:30;;;;;;;16.08;3.05;;;18.30;99.90;;;;;;4974957;28;19981;-63
2022/10/12 12:04:57;;;;;;;14.68;2.60;;;18.30;99.90;;;;;;4992466;28;20043;-63
2022/10/12 12:07:43;;;;;;;14.90;2.92;;;18.40;99.90;;;;;;4992443;28;20536;-63
2022/10/12 12:10:29;;;;;;;13.88;2.90;;;18.30;99.90;;;;;;4991881;28;20054;-64
2022/10/12 12:13:11;;;;;;;12.32;2.97;;;18.30;99.90;;;;;;4974064;28;20042;-64
2022/10/12 12:16:12;;;;;;;9.52;3.10;;;18.40;43.90;;;;;;4973844;28;20125;-63
2022/10/12 12:19:13;;;;;;;8.70;2.13;;;18.40;1.00;;;;;;4967227;28;20060;-63
2022/10/12 12:22:10;;;;;;;15.15;2.40;;;18.30;1.00;;;;;;4974624;28;20183;-63
2022/10/12 12:24:37;;;;;;;15.02;2.53;;;18.30;94.70;;;;;;4974527;28;20050;-63
2022/10/12 12:27:03;;;;;;;10.70;2.55;;;18.20;99.90;;;;;;4991878;28;20043;-63
2022/10/12 12:29:28;;;;;;;15.13;3.15;;;18.20;1.00;;;;;;4990630;28;20042;-63
2022/10/12 12:32:00;;;;;;;7.97;2.20;;;18.10;1.00;;;;;;4955929;28;20121;-63
2022/10/12 12:34:27;;;;;;;15.13;2.85;;;18.10;1.00;;;;;;4972514;28;20042;-63
2022/10/12 12:36:54;;;;;;;13.88;2.53;;;18.10;99.90;;;;;;4955792;28;20603;-63
2022/10/12 12:39:24;;;;;;;11.95;2.58;;;18.20;99.90;;;;;;4974410;28;20136;-64
2022/10/12 12:41:54;;;;;;;13.02;3.00;;;18.20;99.90;;;;;;4974269;28;20053;-63
2022/10/12 12:44:35;;;;;;;7.90;2.10;;;18.30;99.90;;;;;;4974624;28;20040;-64
2022/10/12 12:47:01;;;;;;;11.23;2.63;;;18.20;99.90;;;;;;4991718;28;20049;-63
2022/10/12 12:49:51;;;;;;;11.75;2.58;;;18.70;4.70;;;;;;4991926;28;20042;-63
2022/10/12 12:52:32;;;;;;;13.60;2.63;;;18.40;99.90;;;;;;4991670;28;20074;-63
2022/10/12 12:54:57;;;;;;;14.98;2.60;;;18.40;99.90;;;;;;4991714;28;20189;-63
2022/10/12 12:57:48;;;;;;;11.70;2.33;;;18.30;1.00;;;;;;4991634;28;20184;-63
2022/10/12 13:00:36;;;;;;;10.07;2.40;;;18.30;99.90;;;;;;4989404;28;20081;-64